sensor_id;sensor_type;location;lat;lon;timestamp;P1;durP1;ratioP1;P2;durP2;ratioP2
31182;SDS011;17813;0.000;0.000;2023-03-24T00:01:57;3.00;;;2.80;;
31182;SDS011;17813;0.000;0.000;2023-03-24T00:04:25;4.20;;;2.63;;
31182;SDS011;17813;0.000;0.000;2023-03-24T00:06:52;3.13;;;2.83;;
31182;SDS011;17813;0.000;0.000;2023-03-24T00:09:19;4.63;;;3.17;;
31182;SDS011;17813;0.000;0.000;2023-03-24T00:11:46;5.97;;;2.90;;
31182;SDS011;17813;0.000;0.000;2023-03-24T00:14:13;4.40;;;3.10;;
31182;SDS011;17813;0.000;0.000;2023-03-24T00:16:41;3.77;;;2.70;;
31182;SDS011;17813;0.000;0.000;2023-03-24T00:19:08;4.73;;;3.00;;
31182;SDS011;17813;0.000;0.000;2023-03-24T00:21:38;3.20;;;2.83;;
31182;SDS011;17813;0.000;0.000;2023-03-24T00:24:07;3.90;;;2.80;;
31182;SDS011;17813;0.000;0.000;2023-03-24T00:26:36;3.50;;;3.20;;
31182;SDS011;17813;0.000;0.000;2023-03-24T00:29:05;5.07;;;3.30;;
31182;SDS011;17813;0.000;0.000;2023-03-24T00:31:34;4.10;;;3.70;;
31182;SDS011;17813;0.000;0.000;2023-03-24T00:34:07;3.90;;;3.50;;
31182;SDS011;17813;0.000;0.000;2023-03-24T00:36:35;6.00;;;4.40;;
31182;SDS011;17813;0.000;0.000;2023-03-24T00:39:03;5.50;;;4.30;;
31182;SDS011;17813;0.000;0.000;2023-03-24T00:41:31;6.63;;;4.70;;
31182;SDS011;17813;0.000;0.000;2023-03-24T00:43:58;7.27;;;4.90;;
31182;SDS011;17813;0.000;0.000;2023-03-24T00:46:28;6.70;;;4.93;;
31182;SDS011;17813;0.000;0.000;2023-03-24T00:49:00;7.20;;;4.60;;
31182;SDS011;17813;0.000;0.000;2023-03-24T00:51:37;4.80;;;4.00;;
31182;SDS011;17813;0.000;0.000;2023-03-24T00:54:08;4.07;;;3.73;;
31182;SDS011;17813;0.000;0.000;2023-03-24T00:56:37;4.40;;;3.73;;
31182;SDS011;17813;0.000;0.000;2023-03-24T00:59:05;4.63;;;4.17;;
31182;SDS011;17813;0.000;0.000;2023-03-24T01:01:34;5.57;;;3.60;;
31182;SDS011;17813;0.000;0.000;2023-03-24T01:04:02;5.00;;;3.97;;
31182;SDS011;17813;0.000;0.000;2023-03-24T01:06:30;4.97;;;4.03;;
31182;SDS011;17813;0.000;0.000;2023-03-24T01:09:01;3.97;;;3.50;;
31182;SDS011;17813;0.000;0.000;2023-03-24T01:11:33;6.00;;;3.70;;
31182;SDS011;17813;0.000;0.000;2023-03-24T01:14:03;4.93;;;3.60;;
31182;SDS011;17813;0.000;0.000;2023-03-24T01:16:30;6.30;;;3.80;;
31182;SDS011;17813;0.000;0.000;2023-03-24T01:18:57;4.40;;;3.70;;
31182;SDS011;17813;0.000;0.000;2023-03-24T01:21:25;3.70;;;3.30;;
31182;SDS011;17813;0.000;0.000;2023-03-24T01:23:52;4.00;;;3.53;;
31182;SDS011;17813;0.000;0.000;2023-03-24T01:26:20;3.50;;;3.20;;
31182;SDS011;17813;0.000;0.000;2023-03-24T01:28:47;4.23;;;3.73;;
31182;SDS011;17813;0.000;0.000;2023-03-24T01:31:13;3.77;;;3.10;;
31182;SDS011;17813;0.000;0.000;2023-03-24T01:33:43;3.90;;;3.50;;
31182;SDS011;17813;0.000;0.000;2023-03-24T01:36:13;4.47;;;3.13;;
31182;SDS011;17813;0.000;0.000;2023-03-24T01:38:40;3.77;;;3.47;;
31182;SDS011;17813;0.000;0.000;2023-03-24T01:41:07;3.80;;;3.30;;
31182;SDS011;17813;0.000;0.000;2023-03-24T01:43:35;3.80;;;3.23;;
31182;SDS011;17813;0.000;0.000;2023-03-24T01:46:05;3.73;;;3.37;;
31182;SDS011;17813;0.000;0.000;2023-03-24T01:48:53;4.73;;;3.30;;
31182;SDS011;17813;0.000;0.000;2023-03-24T01:51:36;3.63;;;3.30;;
31182;SDS011;17813;0.000;0.000;2023-03-24T01:54:11;3.53;;;3.23;;
31182;SDS011;17813;0.000;0.000;2023-03-24T01:56:48;3.30;;;3.00;;
31182;SDS011;17813;0.000;0.000;2023-03-24T01:59:29;3.30;;;3.00;;
31182;SDS011;17813;0.000;0.000;2023-03-24T02:02:00;3.30;;;3.00;;
31182;SDS011;17813;0.000;0.000;2023-03-24T02:04:35;4.63;;;3.07;;
31182;SDS011;17813;0.000;0.000;2023-03-24T02:07:24;3.03;;;2.80;;
31182;SDS011;17813;0.000;0.000;2023-03-24T02:10:14;3.70;;;2.90;;
31182;SDS011;17813;0.000;0.000;2023-03-24T02:12:43;4.77;;;3.00;;
31182;SDS011;17813;0.000;0.000;2023-03-24T02:15:13;2.90;;;2.60;;
31182;SDS011;17813;0.000;0.000;2023-03-24T02:34:55;4.40;;;2.90;;
31182;SDS011;17813;0.000;0.000;2023-03-24T02:43:18;2.80;;;2.60;;
31182;SDS011;17813;0.000;0.000;2023-03-24T02:48:48;3.10;;;2.80;;
31182;SDS011;17813;0.000;0.000;2023-03-24T02:51:34;4.23;;;2.83;;
31182;SDS011;17813;0.000;0.000;2023-03-24T03:00:09;3.23;;;3.00;;
31182;SDS011;17813;0.000;0.000;2023-03-24T03:02:51;3.10;;;2.80;;
31182;SDS011;17813;0.000;0.000;2023-03-24T03:05:29;3.00;;;2.67;;
31182;SDS011;17813;0.000;0.000;2023-03-24T03:08:09;3.27;;;2.90;;
31182;SDS011;17813;0.000;0.000;2023-03-24T03:10:42;3.43;;;2.63;;
31182;SDS011;17813;0.000;0.000;2023-03-24T03:13:18;3.20;;;2.90;;
31182;SDS011;17813;0.000;0.000;2023-03-24T03:15:57;3.63;;;2.93;;
31182;SDS011;17813;0.000;0.000;2023-03-24T03:18:39;2.87;;;2.67;;
31182;SDS011;17813;0.000;0.000;2023-03-24T03:21:12;3.10;;;2.80;;
31182;SDS011;17813;0.000;0.000;2023-03-24T03:23:42;3.17;;;2.80;;
31182;SDS011;17813;0.000;0.000;2023-03-24T03:26:17;3.73;;;2.90;;
31182;SDS011;17813;0.000;0.000;2023-03-24T03:28:52;3.20;;;2.90;;
31182;SDS011;17813;0.000;0.000;2023-03-24T03:31:30;3.30;;;3.00;;
31182;SDS011;17813;0.000;0.000;2023-03-24T03:39:59;3.43;;;2.80;;
31182;SDS011;17813;0.000;0.000;2023-03-24T03:42:33;3.87;;;2.80;;
31182;SDS011;17813;0.000;0.000;2023-03-24T03:45:01;5.17;;;2.63;;
31182;SDS011;17813;0.000;0.000;2023-03-24T03:47:31;3.07;;;2.60;;
31182;SDS011;17813;0.000;0.000;2023-03-24T03:49:58;3.10;;;2.80;;
31182;SDS011;17813;0.000;0.000;2023-03-24T03:52:25;3.40;;;3.10;;
31182;SDS011;17813;0.000;0.000;2023-03-24T03:54:52;3.40;;;3.10;;
31182;SDS011;17813;0.000;0.000;2023-03-24T03:57:20;4.03;;;3.10;;
31182;SDS011;17813;0.000;0.000;2023-03-24T03:59:47;4.07;;;3.60;;
31182;SDS011;17813;0.000;0.000;2023-03-24T04:10:59;3.27;;;2.97;;
31182;SDS011;17813;0.000;0.000;2023-03-24T04:13:44;4.00;;;3.23;;
31182;SDS011;17813;0.000;0.000;2023-03-24T04:24:53;3.40;;;3.03;;
31182;SDS011;17813;0.000;0.000;2023-03-24T04:27:39;2.80;;;2.60;;
31182;SDS011;17813;0.000;0.000;2023-03-24T04:33:10;3.53;;;2.77;;
31182;SDS011;17813;0.000;0.000;2023-03-24T04:36:38;3.20;;;2.90;;
31182;SDS011;17813;0.000;0.000;2023-03-24T04:38:54;4.03;;;3.20;;
31182;SDS011;17813;0.000;0.000;2023-03-24T04:41:24;3.30;;;3.00;;
31182;SDS011;17813;0.000;0.000;2023-03-24T04:43:55;3.30;;;2.97;;
31182;SDS011;17813;0.000;0.000;2023-03-24T04:46:23;3.33;;;3.03;;
31182;SDS011;17813;0.000;0.000;2023-03-24T04:48:51;3.77;;;3.37;;
31182;SDS011;17813;0.000;0.000;2023-03-24T04:51:18;3.53;;;3.23;;
31182;SDS011;17813;0.000;0.000;2023-03-24T04:53:46;3.30;;;3.00;;
31182;SDS011;17813;0.000;0.000;2023-03-24T04:56:24;3.47;;;3.17;;
31182;SDS011;17813;0.000;0.000;2023-03-24T04:59:01;4.00;;;3.10;;
31182;SDS011;17813;0.000;0.000;2023-03-24T05:01:29;3.73;;;3.30;;
31182;SDS011;17813;0.000;0.000;2023-03-24T05:03:56;4.10;;;3.27;;
31182;SDS011;17813;0.000;0.000;2023-03-24T05:06:24;3.33;;;2.90;;
31182;SDS011;17813;0.000;0.000;2023-03-24T05:08:51;3.20;;;2.90;;
31182;SDS011;17813;0.000;0.000;2023-03-24T05:11:18;3.30;;;3.00;;
31182;SDS011;17813;0.000;0.000;2023-03-24T05:13:48;3.33;;;3.00;;
31182;SDS011;17813;0.000;0.000;2023-03-24T05:16:15;3.43;;;3.00;;
31182;SDS011;17813;0.000;0.000;2023-03-24T05:18:42;3.20;;;2.90;;
31182;SDS011;17813;0.000;0.000;2023-03-24T05:21:09;3.33;;;2.90;;
31182;SDS011;17813;0.000;0.000;2023-03-24T05:23:37;3.27;;;2.97;;
31182;SDS011;17813;0.000;0.000;2023-03-24T05:26:04;3.27;;;2.97;;
31182;SDS011;17813;0.000;0.000;2023-03-24T05:28:31;3.97;;;2.83;;
31182;SDS011;17813;0.000;0.000;2023-03-24T05:30:59;3.33;;;3.03;;
31182;SDS011;17813;0.000;0.000;2023-03-24T05:33:26;3.37;;;3.07;;
31182;SDS011;17813;0.000;0.000;2023-03-24T05:35:53;5.00;;;2.93;;
31182;SDS011;17813;0.000;0.000;2023-03-24T05:38:20;3.27;;;2.97;;
31182;SDS011;17813;0.000;0.000;2023-03-24T05:40:47;3.30;;;3.00;;
31182;SDS011;17813;0.000;0.000;2023-03-24T05:43:14;2.90;;;2.70;;
31182;SDS011;17813;0.000;0.000;2023-03-24T05:45:41;2.90;;;2.70;;
31182;SDS011;17813;0.000;0.000;2023-03-24T05:48:08;3.23;;;2.87;;
31182;SDS011;17813;0.000;0.000;2023-03-24T05:50:35;3.20;;;2.90;;
31182;SDS011;17813;0.000;0.000;2023-03-24T05:53:02;3.37;;;2.90;;
31182;SDS011;17813;0.000;0.000;2023-03-24T05:55:29;3.17;;;2.87;;
31182;SDS011;17813;0.000;0.000;2023-03-24T05:57:57;3.63;;;2.83;;
31182;SDS011;17813;0.000;0.000;2023-03-24T06:00:27;3.23;;;2.70;;
31182;SDS011;17813;0.000;0.000;2023-03-24T06:02:56;3.20;;;2.80;;
31182;SDS011;17813;0.000;0.000;2023-03-24T06:05:24;3.10;;;2.83;;
31182;SDS011;17813;0.000;0.000;2023-03-24T06:07:51;3.90;;;2.93;;
31182;SDS011;17813;0.000;0.000;2023-03-24T06:10:26;3.20;;;2.90;;
31182;SDS011;17813;0.000;0.000;2023-03-24T06:12:55;2.93;;;2.73;;
31182;SDS011;17813;0.000;0.000;2023-03-24T06:15:29;3.40;;;3.10;;
31182;SDS011;17813;0.000;0.000;2023-03-24T06:17:56;3.47;;;2.80;;
31182;SDS011;17813;0.000;0.000;2023-03-24T06:20:23;2.80;;;2.60;;
31182;SDS011;17813;0.000;0.000;2023-03-24T06:22:50;3.23;;;2.80;;
31182;SDS011;17813;0.000;0.000;2023-03-24T06:25:18;3.20;;;2.90;;
31182;SDS011;17813;0.000;0.000;2023-03-24T06:27:46;3.10;;;2.80;;
31182;SDS011;17813;0.000;0.000;2023-03-24T06:30:14;3.50;;;3.20;;
31182;SDS011;17813;0.000;0.000;2023-03-24T06:32:43;2.90;;;2.70;;
31182;SDS011;17813;0.000;0.000;2023-03-24T06:35:14;3.20;;;2.90;;
31182;SDS011;17813;0.000;0.000;2023-03-24T06:37:41;3.30;;;2.57;;
31182;SDS011;17813;0.000;0.000;2023-03-24T06:40:09;3.20;;;2.70;;
31182;SDS011;17813;0.000;0.000;2023-03-24T06:42:39;3.10;;;2.80;;
31182;SDS011;17813;0.000;0.000;2023-03-24T06:45:08;3.00;;;2.70;;
31182;SDS011;17813;0.000;0.000;2023-03-24T06:47:35;2.87;;;2.53;;
31182;SDS011;17813;0.000;0.000;2023-03-24T06:50:03;3.33;;;2.70;;
31182;SDS011;17813;0.000;0.000;2023-03-24T06:52:32;3.50;;;3.00;;
31182;SDS011;17813;0.000;0.000;2023-03-24T06:55:04;3.33;;;2.60;;
31182;SDS011;17813;0.000;0.000;2023-03-24T06:57:36;5.57;;;3.00;;
31182;SDS011;17813;0.000;0.000;2023-03-24T07:00:04;2.93;;;2.70;;
31182;SDS011;17813;0.000;0.000;2023-03-24T07:02:36;3.00;;;2.70;;
31182;SDS011;17813;0.000;0.000;2023-03-24T07:05:03;3.27;;;2.70;;
31182;SDS011;17813;0.000;0.000;2023-03-24T07:07:32;3.73;;;2.70;;
31182;SDS011;17813;0.000;0.000;2023-03-24T07:10:00;2.50;;;2.30;;
31182;SDS011;17813;0.000;0.000;2023-03-24T07:12:31;2.67;;;2.40;;
31182;SDS011;17813;0.000;0.000;2023-03-24T07:14:59;3.13;;;2.57;;
31182;SDS011;17813;0.000;0.000;2023-03-24T07:17:29;3.30;;;2.60;;
31182;SDS011;17813;0.000;0.000;2023-03-24T07:19:56;2.60;;;2.40;;
31182;SDS011;17813;0.000;0.000;2023-03-24T07:22:30;3.43;;;2.40;;
31182;SDS011;17813;0.000;0.000;2023-03-24T07:25:09;3.57;;;2.30;;
31182;SDS011;17813;0.000;0.000;2023-03-24T07:27:41;2.67;;;2.47;;
31182;SDS011;17813;0.000;0.000;2023-03-24T07:30:14;2.27;;;2.07;;
31182;SDS011;17813;0.000;0.000;2023-03-24T07:32:45;3.17;;;2.10;;
31182;SDS011;17813;0.000;0.000;2023-03-24T07:35:16;2.20;;;1.90;;
31182;SDS011;17813;0.000;0.000;2023-03-24T07:37:43;2.13;;;1.80;;
31182;SDS011;17813;0.000;0.000;2023-03-24T07:40:14;2.30;;;2.10;;
31182;SDS011;17813;0.000;0.000;2023-03-24T07:42:41;2.23;;;2.00;;
31182;SDS011;17813;0.000;0.000;2023-03-24T07:45:09;3.03;;;2.20;;
31182;SDS011;17813;0.000;0.000;2023-03-24T07:47:37;2.50;;;1.83;;
31182;SDS011;17813;0.000;0.000;2023-03-24T07:50:10;4.00;;;2.00;;
31182;SDS011;17813;0.000;0.000;2023-03-24T07:52:41;2.23;;;1.90;;
31182;SDS011;17813;0.000;0.000;2023-03-24T07:55:12;2.10;;;1.90;;
31182;SDS011;17813;0.000;0.000;2023-03-24T07:57:40;2.10;;;1.87;;
31182;SDS011;17813;0.000;0.000;2023-03-24T08:00:10;2.43;;;2.23;;
31182;SDS011;17813;0.000;0.000;2023-03-24T08:02:45;3.17;;;2.40;;
31182;SDS011;17813;0.000;0.000;2023-03-24T08:05:13;2.40;;;2.20;;
31182;SDS011;17813;0.000;0.000;2023-03-24T08:07:48;3.70;;;2.70;;
31182;SDS011;17813;0.000;0.000;2023-03-24T08:10:27;2.60;;;2.40;;
31182;SDS011;17813;0.000;0.000;2023-03-24T08:12:56;4.03;;;2.60;;
31182;SDS011;17813;0.000;0.000;2023-03-24T08:15:24;3.43;;;2.50;;
31182;SDS011;17813;0.000;0.000;2023-03-24T08:17:54;2.70;;;2.27;;
31182;SDS011;17813;0.000;0.000;2023-03-24T08:20:23;3.43;;;2.57;;
31182;SDS011;17813;0.000;0.000;2023-03-24T08:22:51;2.87;;;2.60;;
31182;SDS011;17813;0.000;0.000;2023-03-24T08:25:19;3.70;;;2.63;;
31182;SDS011;17813;0.000;0.000;2023-03-24T08:27:48;3.30;;;2.70;;
31182;SDS011;17813;0.000;0.000;2023-03-24T08:30:17;2.67;;;2.43;;
31182;SDS011;17813;0.000;0.000;2023-03-24T08:32:47;2.77;;;2.50;;
31182;SDS011;17813;0.000;0.000;2023-03-24T08:35:20;4.43;;;2.60;;
31182;SDS011;17813;0.000;0.000;2023-03-24T08:37:50;3.60;;;2.70;;
31182;SDS011;17813;0.000;0.000;2023-03-24T08:40:19;4.10;;;3.00;;
31182;SDS011;17813;0.000;0.000;2023-03-24T08:42:52;2.90;;;2.60;;
31182;SDS011;17813;0.000;0.000;2023-03-24T08:45:25;2.80;;;2.60;;
31182;SDS011;17813;0.000;0.000;2023-03-24T08:47:55;2.80;;;2.50;;
31182;SDS011;17813;0.000;0.000;2023-03-24T08:50:24;3.17;;;2.60;;
31182;SDS011;17813;0.000;0.000;2023-03-24T08:52:54;2.70;;;2.50;;
31182;SDS011;17813;0.000;0.000;2023-03-24T08:55:22;3.10;;;2.57;;
31182;SDS011;17813;0.000;0.000;2023-03-24T08:57:50;2.40;;;2.10;;
31182;SDS011;17813;0.000;0.000;2023-03-24T09:00:19;3.23;;;2.17;;
31182;SDS011;17813;0.000;0.000;2023-03-24T09:02:48;2.40;;;2.20;;
31182;SDS011;17813;0.000;0.000;2023-03-24T09:05:17;2.43;;;2.17;;
31182;SDS011;17813;0.000;0.000;2023-03-24T09:07:46;2.83;;;2.30;;
31182;SDS011;17813;0.000;0.000;2023-03-24T09:10:14;2.30;;;2.10;;
31182;SDS011;17813;0.000;0.000;2023-03-24T09:12:43;2.87;;;2.20;;
31182;SDS011;17813;0.000;0.000;2023-03-24T09:15:11;1.90;;;1.70;;
31182;SDS011;17813;0.000;0.000;2023-03-24T09:17:41;2.70;;;1.60;;
31182;SDS011;17813;0.000;0.000;2023-03-24T09:20:10;2.00;;;1.70;;
31182;SDS011;17813;0.000;0.000;2023-03-24T09:22:44;3.03;;;1.80;;
31182;SDS011;17813;0.000;0.000;2023-03-24T09:25:12;3.43;;;1.67;;
31182;SDS011;17813;0.000;0.000;2023-03-24T09:27:43;1.60;;;1.50;;
31182;SDS011;17813;0.000;0.000;2023-03-24T09:30:11;1.50;;;1.40;;
31182;SDS011;17813;0.000;0.000;2023-03-24T09:32:41;1.70;;;1.60;;
31182;SDS011;17813;0.000;0.000;2023-03-24T09:35:09;2.00;;;1.60;;
31182;SDS011;17813;0.000;0.000;2023-03-24T09:37:36;1.98;;;1.30;;
31182;SDS011;17813;0.000;0.000;2023-03-24T09:40:04;1.50;;;1.40;;
31182;SDS011;17813;0.000;0.000;2023-03-24T09:42:36;1.00;;;1.00;;
31182;SDS011;17813;0.000;0.000;2023-03-24T09:45:14;1.25;;;1.20;;
31182;SDS011;17813;0.000;0.000;2023-03-24T09:47:51;1.38;;;1.10;;
31182;SDS011;17813;0.000;0.000;2023-03-24T09:50:27;1.27;;;1.17;;
31182;SDS011;17813;0.000;0.000;2023-03-24T09:53:55;1.50;;;1.15;;
31182;SDS011;17813;0.000;0.000;2023-03-24T09:56:13;1.20;;;1.10;;
31182;SDS011;17813;0.000;0.000;2023-03-24T09:58:47;1.27;;;1.17;;
31182;SDS011;17813;0.000;0.000;2023-03-24T10:01:28;1.27;;;1.17;;
31182;SDS011;17813;0.000;0.000;2023-03-24T10:03:57;1.65;;;1.23;;
31182;SDS011;17813;0.000;0.000;2023-03-24T10:06:27;1.05;;;1.00;;
31182;SDS011;17813;0.000;0.000;2023-03-24T10:09:17;1.35;;;1.25;;
31182;SDS011;17813;0.000;0.000;2023-03-24T10:11:51;1.50;;;1.40;;
31182;SDS011;17813;0.000;0.000;2023-03-24T10:20:40;1.15;;;1.10;;
31182;SDS011;17813;0.000;0.000;2023-03-24T10:28:50;1.42;;;1.33;;
31182;SDS011;17813;0.000;0.000;2023-03-24T10:31:42;3.20;;;1.60;;
31182;SDS011;17813;0.000;0.000;2023-03-24T10:34:21;1.60;;;1.50;;
31182;SDS011;17813;0.000;0.000;2023-03-24T10:37:02;1.30;;;1.20;;
31182;SDS011;17813;0.000;0.000;2023-03-24T10:39:37;1.30;;;1.20;;
31182;SDS011;17813;0.000;0.000;2023-03-24T10:42:05;1.33;;;1.20;;
31182;SDS011;17813;0.000;0.000;2023-03-24T10:44:37;1.50;;;1.40;;
31182;SDS011;17813;0.000;0.000;2023-03-24T10:47:05;1.50;;;1.05;;
31182;SDS011;17813;0.000;0.000;2023-03-24T10:49:35;1.63;;;1.17;;
31182;SDS011;17813;0.000;0.000;2023-03-24T10:52:07;1.60;;;1.20;;
31182;SDS011;17813;0.000;0.000;2023-03-24T10:54:36;1.10;;;1.10;;
31182;SDS011;17813;0.000;0.000;2023-03-24T10:57:18;1.17;;;1.08;;
31182;SDS011;17813;0.000;0.000;2023-03-24T11:02:37;1.30;;;1.20;;
31182;SDS011;17813;0.000;0.000;2023-03-24T11:05:14;2.08;;;1.30;;
31182;SDS011;17813;0.000;0.000;2023-03-24T11:07:49;1.38;;;1.27;;
31182;SDS011;17813;0.000;0.000;2023-03-24T11:10:23;1.20;;;1.10;;
31182;SDS011;17813;0.000;0.000;2023-03-24T11:12:59;1.65;;;1.48;;
31182;SDS011;17813;0.000;0.000;2023-03-24T11:15:31;2.33;;;1.40;;
31182;SDS011;17813;0.000;0.000;2023-03-24T11:23:18;1.43;;;1.33;;
31182;SDS011;17813;0.000;0.000;2023-03-24T11:26:21;2.33;;;1.50;;
31182;SDS011;17813;0.000;0.000;2023-03-24T11:28:59;1.70;;;1.30;;
31182;SDS011;17813;0.000;0.000;2023-03-24T11:31:38;1.30;;;1.20;;
31182;SDS011;17813;0.000;0.000;2023-03-24T11:34:17;1.47;;;1.30;;
31182;SDS011;17813;0.000;0.000;2023-03-24T11:36:51;1.30;;;1.20;;
31182;SDS011;17813;0.000;0.000;2023-03-24T11:39:28;1.60;;;1.50;;
31182;SDS011;17813;0.000;0.000;2023-03-24T11:42:00;1.40;;;1.30;;
31182;SDS011;17813;0.000;0.000;2023-03-24T11:44:30;1.30;;;1.30;;
31182;SDS011;17813;0.000;0.000;2023-03-24T11:47:03;1.40;;;1.30;;
31182;SDS011;17813;0.000;0.000;2023-03-24T11:49:49;1.93;;;1.63;;
31182;SDS011;17813;0.000;0.000;2023-03-24T11:52:22;1.50;;;1.40;;
31182;SDS011;17813;0.000;0.000;2023-03-24T11:54:57;1.60;;;1.40;;
31182;SDS011;17813;0.000;0.000;2023-03-24T11:57:34;1.60;;;1.50;;
31182;SDS011;17813;0.000;0.000;2023-03-24T12:03:03;1.90;;;1.50;;
31182;SDS011;17813;0.000;0.000;2023-03-24T12:17:39;2.33;;;1.53;;
31182;SDS011;17813;0.000;0.000;2023-03-24T12:20:11;1.87;;;1.60;;
31182;SDS011;17813;0.000;0.000;2023-03-24T12:39:19;2.50;;;1.03;;
31182;SDS011;17813;0.000;0.000;2023-03-24T12:41:52;1.60;;;1.00;;
31182;SDS011;17813;0.000;0.000;2023-03-24T12:50:03;1.73;;;1.00;;
31182;SDS011;17813;0.000;0.000;2023-03-24T12:52:47;1.80;;;0.90;;
31182;SDS011;17813;0.000;0.000;2023-03-24T12:55:44;1.40;;;1.10;;
31182;SDS011;17813;0.000;0.000;2023-03-24T13:00:52;1.43;;;0.97;;
31182;SDS011;17813;0.000;0.000;2023-03-24T13:06:33;2.77;;;1.10;;
31182;SDS011;17813;0.000;0.000;2023-03-24T13:11:57;2.67;;;1.10;;
31182;SDS011;17813;0.000;0.000;2023-03-24T13:17:47;3.17;;;1.60;;
31182;SDS011;17813;0.000;0.000;2023-03-24T13:23:48;2.27;;;1.40;;
31182;SDS011;17813;0.000;0.000;2023-03-24T13:29:41;1.20;;;1.00;;
31182;SDS011;17813;0.000;0.000;2023-03-24T13:32:16;1.40;;;1.20;;
31182;SDS011;17813;0.000;0.000;2023-03-24T13:34:54;1.83;;;1.10;;
31182;SDS011;17813;0.000;0.000;2023-03-24T13:37:44;1.70;;;1.20;;
31182;SDS011;17813;0.000;0.000;2023-03-24T13:42:52;1.20;;;1.10;;
31182;SDS011;17813;0.000;0.000;2023-03-24T13:45:46;1.40;;;1.20;;
31182;SDS011;17813;0.000;0.000;2023-03-24T13:50:57;1.77;;;1.23;;
31182;SDS011;17813;0.000;0.000;2023-03-24T13:53:32;2.43;;;1.30;;
31182;SDS011;17813;0.000;0.000;2023-03-24T13:56:05;3.40;;;1.00;;
31182;SDS011;17813;0.000;0.000;2023-03-24T13:58:43;1.97;;;1.00;;
31182;SDS011;17813;0.000;0.000;2023-03-24T14:06:53;2.80;;;1.07;;
31182;SDS011;17813;0.000;0.000;2023-03-24T14:09:29;2.30;;;1.10;;
31182;SDS011;17813;0.000;0.000;2023-03-24T14:14:31;1.67;;;1.20;;
31182;SDS011;17813;0.000;0.000;2023-03-24T14:19:31;1.53;;;0.80;;
31182;SDS011;17813;0.000;0.000;2023-03-24T14:22:28;2.00;;;1.23;;
31182;SDS011;17813;0.000;0.000;2023-03-24T14:27:34;1.43;;;0.97;;
31182;SDS011;17813;0.000;0.000;2023-03-24T14:32:36;0.77;;;0.77;;
31182;SDS011;17813;0.000;0.000;2023-03-24T14:35:25;1.40;;;0.87;;
31182;SDS011;17813;0.000;0.000;2023-03-24T14:38:05;2.07;;;1.13;;
31182;SDS011;17813;0.000;0.000;2023-03-24T14:40:57;1.60;;;1.00;;
31182;SDS011;17813;0.000;0.000;2023-03-24T14:46:07;1.40;;;1.10;;
31182;SDS011;17813;0.000;0.000;2023-03-24T14:49:25;1.13;;;1.00;;
31182;SDS011;17813;0.000;0.000;2023-03-24T14:52:09;1.10;;;1.00;;
31182;SDS011;17813;0.000;0.000;2023-03-24T14:54:39;2.10;;;1.00;;
31182;SDS011;17813;0.000;0.000;2023-03-24T14:57:16;1.53;;;1.00;;
31182;SDS011;17813;0.000;0.000;2023-03-24T15:00:07;1.23;;;1.00;;
31182;SDS011;17813;0.000;0.000;2023-03-24T15:06:22;1.10;;;0.90;;
31182;SDS011;17813;0.000;0.000;2023-03-24T15:08:49;1.20;;;1.10;;
31182;SDS011;17813;0.000;0.000;2023-03-24T15:11:31;1.03;;;0.80;;
31182;SDS011;17813;0.000;0.000;2023-03-24T15:14:01;1.80;;;0.97;;
31182;SDS011;17813;0.000;0.000;2023-03-24T15:16:31;1.23;;;0.90;;
31182;SDS011;17813;0.000;0.000;2023-03-24T15:22:00;1.30;;;1.00;;
31182;SDS011;17813;0.000;0.000;2023-03-24T15:24:30;0.90;;;0.83;;
31182;SDS011;17813;0.000;0.000;2023-03-24T15:29:33;1.60;;;1.10;;
31182;SDS011;17813;0.000;0.000;2023-03-24T15:32:06;1.93;;;1.20;;
31182;SDS011;17813;0.000;0.000;2023-03-24T15:34:51;1.27;;;0.80;;
31182;SDS011;17813;0.000;0.000;2023-03-24T15:40:00;1.13;;;1.00;;
31182;SDS011;17813;0.000;0.000;2023-03-24T15:42:29;1.43;;;1.10;;
31182;SDS011;17813;0.000;0.000;2023-03-24T15:45:05;1.50;;;1.00;;
31182;SDS011;17813;0.000;0.000;2023-03-24T15:47:53;1.50;;;1.00;;
31182;SDS011;17813;0.000;0.000;2023-03-24T15:50:31;1.43;;;0.90;;
31182;SDS011;17813;0.000;0.000;2023-03-24T15:53:19;1.20;;;0.93;;
31182;SDS011;17813;0.000;0.000;2023-03-24T15:56:03;1.10;;;1.00;;
31182;SDS011;17813;0.000;0.000;2023-03-24T15:58:43;1.20;;;0.90;;
31182;SDS011;17813;0.000;0.000;2023-03-24T16:01:14;1.23;;;0.90;;
31182;SDS011;17813;0.000;0.000;2023-03-24T16:03:46;1.80;;;1.20;;
31182;SDS011;17813;0.000;0.000;2023-03-24T16:06:15;2.30;;;1.20;;
31182;SDS011;17813;0.000;0.000;2023-03-24T16:08:51;1.10;;;1.00;;
31182;SDS011;17813;0.000;0.000;2023-03-24T16:11:19;2.00;;;1.27;;
31182;SDS011;17813;0.000;0.000;2023-03-24T16:13:46;1.60;;;1.10;;
31182;SDS011;17813;0.000;0.000;2023-03-24T16:18:41;1.53;;;1.10;;
31182;SDS011;17813;0.000;0.000;2023-03-24T16:21:15;1.80;;;1.10;;
31182;SDS011;17813;0.000;0.000;2023-03-24T16:23:44;1.00;;;0.90;;
31182;SDS011;17813;0.000;0.000;2023-03-24T16:26:16;1.00;;;0.90;;
31182;SDS011;17813;0.000;0.000;2023-03-24T16:28:49;2.53;;;1.30;;
31182;SDS011;17813;0.000;0.000;2023-03-24T16:31:21;4.57;;;2.70;;
31182;SDS011;17813;0.000;0.000;2023-03-24T16:33:56;3.43;;;2.20;;
31182;SDS011;17813;0.000;0.000;2023-03-24T16:36:25;2.47;;;2.07;;
31182;SDS011;17813;0.000;0.000;2023-03-24T16:38:59;1.87;;;1.50;;
31182;SDS011;17813;0.000;0.000;2023-03-24T16:41:32;2.80;;;1.33;;
31182;SDS011;17813;0.000;0.000;2023-03-24T16:44:08;1.70;;;1.30;;
31182;SDS011;17813;0.000;0.000;2023-03-24T16:46:40;1.37;;;1.20;;
31182;SDS011;17813;0.000;0.000;2023-03-24T16:49:13;2.20;;;1.33;;
31182;SDS011;17813;0.000;0.000;2023-03-24T16:51:47;2.00;;;1.20;;
31182;SDS011;17813;0.000;0.000;2023-03-24T16:54:28;2.07;;;1.40;;
31182;SDS011;17813;0.000;0.000;2023-03-24T16:56:57;2.00;;;1.30;;
31182;SDS011;17813;0.000;0.000;2023-03-24T16:59:25;1.83;;;1.30;;
31182;SDS011;17813;0.000;0.000;2023-03-24T17:01:55;2.37;;;1.40;;
31182;SDS011;17813;0.000;0.000;2023-03-24T17:04:30;1.90;;;1.30;;
31182;SDS011;17813;0.000;0.000;2023-03-24T17:06:58;2.10;;;1.20;;
31182;SDS011;17813;0.000;0.000;2023-03-24T17:09:26;2.23;;;1.63;;
31182;SDS011;17813;0.000;0.000;2023-03-24T17:11:55;1.50;;;1.20;;
31182;SDS011;17813;0.000;0.000;2023-03-24T17:14:27;1.40;;;1.30;;
31182;SDS011;17813;0.000;0.000;2023-03-24T17:16:56;1.87;;;1.30;;
31182;SDS011;17813;0.000;0.000;2023-03-24T17:19:24;2.93;;;1.40;;
31182;SDS011;17813;0.000;0.000;2023-03-24T17:21:59;2.37;;;1.50;;
31182;SDS011;17813;0.000;0.000;2023-03-24T17:24:34;2.83;;;1.70;;
31182;SDS011;17813;0.000;0.000;2023-03-24T17:27:11;1.93;;;1.30;;
31182;SDS011;17813;0.000;0.000;2023-03-24T17:29:43;2.53;;;1.50;;
31182;SDS011;17813;0.000;0.000;2023-03-24T17:32:10;2.00;;;1.50;;
31182;SDS011;17813;0.000;0.000;2023-03-24T17:34:37;2.03;;;1.80;;
31182;SDS011;17813;0.000;0.000;2023-03-24T17:37:07;3.77;;;2.10;;
31182;SDS011;17813;0.000;0.000;2023-03-24T17:39:34;3.17;;;2.03;;
31182;SDS011;17813;0.000;0.000;2023-03-24T17:42:03;2.00;;;1.57;;
31182;SDS011;17813;0.000;0.000;2023-03-24T17:44:31;2.30;;;1.83;;
31182;SDS011;17813;0.000;0.000;2023-03-24T17:46:59;2.53;;;1.70;;
31182;SDS011;17813;0.000;0.000;2023-03-24T17:49:26;2.47;;;1.93;;
31182;SDS011;17813;0.000;0.000;2023-03-24T17:51:58;3.83;;;1.90;;
31182;SDS011;17813;0.000;0.000;2023-03-24T17:54:25;3.93;;;2.20;;
31182;SDS011;17813;0.000;0.000;2023-03-24T17:56:52;3.87;;;2.50;;
31182;SDS011;17813;0.000;0.000;2023-03-24T17:59:19;3.47;;;2.63;;
31182;SDS011;17813;0.000;0.000;2023-03-24T18:01:46;4.43;;;2.90;;
31182;SDS011;17813;0.000;0.000;2023-03-24T18:04:14;4.90;;;2.80;;
31182;SDS011;17813;0.000;0.000;2023-03-24T18:06:42;3.83;;;2.90;;
31182;SDS011;17813;0.000;0.000;2023-03-24T18:09:11;2.77;;;2.23;;
31182;SDS011;17813;0.000;0.000;2023-03-24T18:11:38;4.20;;;2.80;;
31182;SDS011;17813;0.000;0.000;2023-03-24T18:14:05;3.97;;;2.50;;
31182;SDS011;17813;0.000;0.000;2023-03-24T18:16:33;5.00;;;2.40;;
31182;SDS011;17813;0.000;0.000;2023-03-24T18:19:02;3.13;;;2.40;;
31182;SDS011;17813;0.000;0.000;2023-03-24T18:21:29;3.97;;;2.97;;
31182;SDS011;17813;0.000;0.000;2023-03-24T18:23:56;4.27;;;2.47;;